AZU1123 SBGR-SBCT
Flight info
| Callsign | AZU1123 |
|---|---|
| Flight time | 0h 45m |
| Altitude | 30000 |
| Route | SOVSI UZ85 RAXIT |
| Aircraft | A333/H-SDE3GHIJ2J3J5M1RVWXY/LB2D1 |
Departure
| Time | 2026-05-09 03:50 |
|---|---|
| Airport | São Paulo/Guarulhos–Governor André Franco Montoro International Airport (SBGR) |
Arrival
| Time | 2026-05-09 04:36 |
|---|---|
| Airport | Curitiba-Afonso Pena International Airport (SBCT) |
| Time | Latitude | Longitude | Altitude | Speed | Heading |
|---|---|---|---|---|---|
| 2026-05-09 03:11 | -23.42689 | -46.47446 | 2446 ft | 0 kts | 73° |
| 2026-05-09 03:36 | -23.42694 | -46.47459 | 2446 ft | 2 kts | 64° |
| 2026-05-09 03:36 | -23.42700 | -46.47475 | 2447 ft | 2 kts | 73° |
| 2026-05-09 03:37 | -23.42704 | -46.47491 | 2447 ft | 2 kts | 74° |
| 2026-05-09 03:37 | -23.42707 | -46.47507 | 2447 ft | 2 kts | 93° |
| 2026-05-09 03:37 | -23.42704 | -46.47523 | 2447 ft | 2 kts | 111° |
| 2026-05-09 03:37 | -23.42697 | -46.47537 | 2447 ft | 2 kts | 129° |
| 2026-05-09 03:38 | -23.42688 | -46.47547 | 2447 ft | 2 kts | 144° |
| 2026-05-09 03:38 | -23.42682 | -46.47552 | 2447 ft | 2 kts | 153° |
| 2026-05-09 03:38 | -23.42673 | -46.47556 | 2447 ft | 0 kts | 163° |
| 2026-05-09 03:43 | -23.42680 | -46.47554 | 2447 ft | 5 kts | 163° |
| 2026-05-09 03:43 | -23.42746 | -46.47533 | 2448 ft | 12 kts | 165° |
| 2026-05-09 03:44 | -23.42830 | -46.47508 | 2449 ft | 12 kts | 161° |
| 2026-05-09 03:44 | -23.42920 | -46.47482 | 2450 ft | 13 kts | 184° |
| 2026-05-09 03:44 | -23.42964 | -46.47554 | 2451 ft | 12 kts | 262° |
| 2026-05-09 03:44 | -23.42985 | -46.47654 | 2451 ft | 14 kts | 255° |
| 2026-05-09 03:45 | -23.43017 | -46.47773 | 2452 ft | 19 kts | 253° |
| 2026-05-09 03:45 | -23.43059 | -46.47928 | 2452 ft | 21 kts | 253° |
| 2026-05-09 03:45 | -23.43101 | -46.48085 | 2451 ft | 21 kts | 254° |
| 2026-05-09 03:45 | -23.43141 | -46.48241 | 2451 ft | 21 kts | 254° |
| 2026-05-09 03:46 | -23.43195 | -46.48380 | 2451 ft | 17 kts | 208° |
| 2026-05-09 03:46 | -23.43257 | -46.48381 | 2452 ft | 0 kts | 166° |
| 2026-05-09 03:48 | -23.43258 | -46.48381 | 2452 ft | 2 kts | 166° |
| 2026-05-09 03:48 | -23.43353 | -46.48352 | 2454 ft | 22 kts | 163° |
| 2026-05-09 03:48 | -23.43407 | -46.48259 | 2457 ft | 14 kts | 75° |
| 2026-05-09 03:49 | -23.43391 | -46.48196 | 2456 ft | 0 kts | 73° |
| 2026-05-09 03:49 | -23.43389 | -46.48189 | 2456 ft | 7 kts | 73° |
| 2026-05-09 03:49 | -23.43316 | -46.47922 | 2457 ft | 72 kts | 73° |
| 2026-05-09 03:50 | -23.43107 | -46.47145 | 2456 ft | 138 kts | 73° |
| 2026-05-09 03:50 | -23.42783 | -46.45972 | 2560 ft | 179 kts | 72° |
| 2026-05-09 03:50 | -23.42463 | -46.44692 | 3262 ft | 179 kts | 71° |
| 2026-05-09 03:50 | -23.42107 | -46.43391 | 3779 ft | 187 kts | 67° |
| 2026-05-09 03:51 | -23.41632 | -46.41822 | 3706 ft | 242 kts | 68° |
| 2026-05-09 03:51 | -23.41110 | -46.40057 | 4416 ft | 247 kts | 68° |
| 2026-05-09 03:51 | -23.40573 | -46.38269 | 4949 ft | 252 kts | 66° |
| 2026-05-09 03:51 | -23.40095 | -46.36404 | 5512 ft | 260 kts | 78° |
| 2026-05-09 03:52 | -23.40310 | -46.34444 | 6092 ft | 273 kts | 106° |
| 2026-05-09 03:52 | -23.41096 | -46.32541 | 6658 ft | 277 kts | 109° |
| 2026-05-09 03:52 | -23.41787 | -46.30593 | 7367 ft | 273 kts | 106° |
| 2026-05-09 03:52 | -23.42432 | -46.28660 | 7938 ft | 274 kts | 106° |
| 2026-05-09 03:53 | -23.43157 | -46.26775 | 8542 ft | 275 kts | 120° |
| 2026-05-09 03:53 | -23.44508 | -46.25311 | 9101 ft | 276 kts | 151° |
| 2026-05-09 03:53 | -23.46306 | -46.24698 | 9696 ft | 268 kts | 181° |
| 2026-05-09 03:53 | -23.48076 | -46.25033 | 10262 ft | 259 kts | 205° |
| 2026-05-09 03:54 | -23.49815 | -46.25617 | 10818 ft | 262 kts | 197° |
| 2026-05-09 03:54 | -23.51603 | -46.26010 | 11379 ft | 263 kts | 195° |
| 2026-05-09 03:54 | -23.53390 | -46.26385 | 11912 ft | 263 kts | 197° |
| 2026-05-09 03:54 | -23.55113 | -46.27079 | 12159 ft | 266 kts | 220° |
| 2026-05-09 03:55 | -23.56339 | -46.28482 | 12144 ft | 250 kts | 248° |
| 2026-05-09 03:55 | -23.56751 | -46.30242 | 12174 ft | 235 kts | 273° |
| 2026-05-09 03:55 | -23.56871 | -46.32020 | 12153 ft | 236 kts | 265° |
| 2026-05-09 03:55 | -23.57180 | -46.33767 | 12129 ft | 232 kts | 264° |
| 2026-05-09 03:56 | -23.57501 | -46.35474 | 12130 ft | 231 kts | 263° |
| 2026-05-09 03:56 | -23.57833 | -46.37176 | 12137 ft | 234 kts | 263° |
| 2026-05-09 03:56 | -23.58175 | -46.38900 | 12134 ft | 231 kts | 263° |
| 2026-05-09 03:56 | -23.58516 | -46.40620 | 12131 ft | 232 kts | 263° |
| 2026-05-09 03:57 | -23.58859 | -46.42358 | 12129 ft | 233 kts | 263° |
| 2026-05-09 03:57 | -23.59200 | -46.44075 | 12127 ft | 233 kts | 263° |
| 2026-05-09 03:57 | -23.59539 | -46.45787 | 12133 ft | 232 kts | 263° |
| 2026-05-09 03:57 | -23.59880 | -46.47511 | 12130 ft | 232 kts | 263° |
| 2026-05-09 03:58 | -23.60218 | -46.49223 | 12122 ft | 230 kts | 263° |
| 2026-05-09 03:58 | -23.60556 | -46.50928 | 12120 ft | 231 kts | 263° |
| 2026-05-09 03:58 | -23.60869 | -46.52642 | 12119 ft | 230 kts | 266° |
| 2026-05-09 03:58 | -23.61114 | -46.54371 | 12122 ft | 231 kts | 265° |
| 2026-05-09 03:59 | -23.61374 | -46.56129 | 12266 ft | 241 kts | 266° |
| 2026-05-09 03:59 | -23.61632 | -46.57882 | 13095 ft | 233 kts | 265° |
| 2026-05-09 03:59 | -23.61884 | -46.59585 | 13836 ft | 229 kts | 266° |
| 2026-05-09 03:59 | -23.62136 | -46.61297 | 14421 ft | 231 kts | 267° |
| 2026-05-09 04:00 | -23.62389 | -46.63021 | 15050 ft | 230 kts | 266° |
| 2026-05-09 04:00 | -23.62643 | -46.64727 | 15679 ft | 229 kts | 266° |
| 2026-05-09 04:00 | -23.63146 | -46.66378 | 16204 ft | 240 kts | 245° |
| 2026-05-09 04:00 | -23.64119 | -46.67889 | 16740 ft | 244 kts | 243° |
| 2026-05-09 04:01 | -23.65047 | -46.69438 | 17188 ft | 248 kts | 245° |
| 2026-05-09 04:01 | -23.65986 | -46.71037 | 17690 ft | 252 kts | 245° |
| 2026-05-09 04:01 | -23.66934 | -46.72669 | 17987 ft | 265 kts | 245° |
| 2026-05-09 04:01 | -23.67962 | -46.74443 | 18174 ft | 283 kts | 244° |
| 2026-05-09 04:02 | -23.69038 | -46.76293 | 18375 ft | 301 kts | 244° |
| 2026-05-09 04:02 | -23.70195 | -46.78290 | 18589 ft | 318 kts | 244° |
| 2026-05-09 04:02 | -23.71400 | -46.80351 | 18788 ft | 334 kts | 243° |
| 2026-05-09 04:02 | -23.72708 | -46.82569 | 18947 ft | 351 kts | 243° |
| 2026-05-09 04:03 | -23.74054 | -46.84851 | 19136 ft | 366 kts | 243° |
| 2026-05-09 04:03 | -23.75450 | -46.87223 | 19276 ft | 380 kts | 243° |
| 2026-05-09 04:03 | -23.76913 | -46.89705 | 19426 ft | 394 kts | 243° |
| 2026-05-09 04:03 | -23.78402 | -46.92235 | 19666 ft | 403 kts | 242° |
| 2026-05-09 04:04 | -23.79922 | -46.94814 | 20168 ft | 405 kts | 243° |
| 2026-05-09 04:04 | -23.81434 | -46.97390 | 20681 ft | 406 kts | 243° |
| 2026-05-09 04:04 | -23.82964 | -46.99989 | 21217 ft | 407 kts | 243° |
| 2026-05-09 04:04 | -23.84496 | -47.02603 | 21709 ft | 408 kts | 243° |
| 2026-05-09 04:05 | -23.86039 | -47.05232 | 21994 ft | 415 kts | 243° |
| 2026-05-09 04:05 | -23.87594 | -47.07885 | 22572 ft | 413 kts | 243° |
| 2026-05-09 04:05 | -23.89144 | -47.10530 | 22947 ft | 417 kts | 243° |
| 2026-05-09 04:05 | -23.90689 | -47.13166 | 23391 ft | 418 kts | 243° |
| 2026-05-09 04:06 | -23.92259 | -47.15848 | 23859 ft | 418 kts | 243° |
| 2026-05-09 04:06 | -23.93841 | -47.18558 | 24281 ft | 421 kts | 243° |
| 2026-05-09 04:06 | -23.95427 | -47.21265 | 24678 ft | 423 kts | 243° |
| 2026-05-09 04:06 | -23.96991 | -47.23943 | 25082 ft | 424 kts | 243° |
| 2026-05-09 04:07 | -23.98584 | -47.26669 | 25401 ft | 428 kts | 243° |
| 2026-05-09 04:07 | -24.00196 | -47.29429 | 25867 ft | 428 kts | 243° |
| 2026-05-09 04:07 | -24.01796 | -47.32175 | 26259 ft | 430 kts | 243° |
| 2026-05-09 04:07 | -24.03406 | -47.34935 | 26638 ft | 432 kts | 243° |
| 2026-05-09 04:08 | -24.05025 | -47.37711 | 27088 ft | 432 kts | 243° |
| 2026-05-09 04:08 | -24.06618 | -47.40448 | 27439 ft | 434 kts | 243° |
| 2026-05-09 04:08 | -24.08254 | -47.43258 | 27846 ft | 435 kts | 243° |
| 2026-05-09 04:08 | -24.09903 | -47.46040 | 28153 ft | 441 kts | 238° |
| 2026-05-09 04:09 | -24.12131 | -47.48408 | 28382 ft | 459 kts | 222° |
| 2026-05-09 04:09 | -24.14938 | -47.50178 | 28740 ft | 466 kts | 214° |
| 2026-05-09 04:09 | -24.17696 | -47.51964 | 29104 ft | 464 kts | 218° |
| 2026-05-09 04:09 | -24.20425 | -47.53851 | 29345 ft | 467 kts | 218° |
| 2026-05-09 04:10 | -24.23194 | -47.55793 | 29698 ft | 468 kts | 218° |
| 2026-05-09 04:10 | -24.25932 | -47.57722 | 29965 ft | 466 kts | 219° |
| 2026-05-09 04:10 | -24.28633 | -47.59634 | 29864 ft | 467 kts | 218° |
| 2026-05-09 04:10 | -24.31379 | -47.61575 | 29917 ft | 466 kts | 219° |
| 2026-05-09 04:11 | -24.36874 | -47.65464 | 29898 ft | 471 kts | 219° |
| 2026-05-09 04:11 | -24.42312 | -47.69375 | 29908 ft | 468 kts | 223° |
| 2026-05-09 04:12 | -24.47038 | -47.74177 | 29919 ft | 462 kts | 229° |
| 2026-05-09 04:12 | -24.51753 | -47.79007 | 29907 ft | 462 kts | 228° |
| 2026-05-09 04:13 | -24.56491 | -47.83839 | 29897 ft | 463 kts | 229° |
| 2026-05-09 04:13 | -24.61190 | -47.88638 | 29902 ft | 460 kts | 228° |
| 2026-05-09 04:14 | -24.65912 | -47.93467 | 29882 ft | 463 kts | 228° |
| 2026-05-09 04:14 | -24.70632 | -47.98296 | 29899 ft | 465 kts | 228° |
| 2026-05-09 04:15 | -24.75345 | -48.03126 | 29893 ft | 462 kts | 228° |
| 2026-05-09 04:15 | -24.80044 | -48.07944 | 29865 ft | 465 kts | 228° |
| 2026-05-09 04:16 | -24.82444 | -48.10411 | 29141 ft | 473 kts | 228° |
| 2026-05-09 04:16 | -24.84688 | -48.12969 | 28308 ft | 464 kts | 234° |
| 2026-05-09 04:16 | -24.86852 | -48.15596 | 27548 ft | 462 kts | 229° |
| 2026-05-09 04:16 | -24.89159 | -48.17986 | 26808 ft | 458 kts | 228° |
| 2026-05-09 04:17 | -24.91513 | -48.20367 | 26051 ft | 453 kts | 227° |
| 2026-05-09 04:17 | -24.93834 | -48.22695 | 25299 ft | 449 kts | 227° |
| 2026-05-09 04:17 | -24.96120 | -48.24982 | 24546 ft | 445 kts | 227° |
| 2026-05-09 04:17 | -24.98388 | -48.27250 | 23799 ft | 441 kts | 227° |
| 2026-05-09 04:18 | -25.00650 | -48.29514 | 23051 ft | 437 kts | 227° |
| 2026-05-09 04:18 | -25.02909 | -48.31774 | 22303 ft | 434 kts | 227° |
| 2026-05-09 04:18 | -25.05117 | -48.33984 | 21582 ft | 430 kts | 228° |
| 2026-05-09 04:18 | -25.07302 | -48.36176 | 20728 ft | 427 kts | 228° |
| 2026-05-09 04:19 | -25.09444 | -48.38316 | 19604 ft | 410 kts | 228° |
| 2026-05-09 04:19 | -25.11546 | -48.40426 | 18618 ft | 402 kts | 229° |
| 2026-05-09 04:19 | -25.13526 | -48.42493 | 17670 ft | 393 kts | 233° |
| 2026-05-09 04:19 | -25.15349 | -48.44709 | 16724 ft | 386 kts | 234° |
| 2026-05-09 04:20 | -25.17151 | -48.46867 | 15662 ft | 384 kts | 234° |
| 2026-05-09 04:20 | -25.18917 | -48.48974 | 14450 ft | 375 kts | 234° |
| 2026-05-09 04:20 | -25.20651 | -48.51036 | 13258 ft | 366 kts | 234° |
| 2026-05-09 04:20 | -25.22365 | -48.53072 | 12210 ft | 354 kts | 234° |
| 2026-05-09 04:21 | -25.24002 | -48.55014 | 11382 ft | 340 kts | 235° |
| 2026-05-09 04:21 | -25.25575 | -48.56885 | 10537 ft | 330 kts | 236° |
| 2026-05-09 04:21 | -25.28612 | -48.60507 | 8825 ft | 317 kts | 236° |
| 2026-05-09 04:22 | -25.30096 | -48.62280 | 7967 ft | 313 kts | 235° |
| 2026-05-09 04:22 | -25.31561 | -48.64026 | 7254 ft | 308 kts | 235° |
| 2026-05-09 04:22 | -25.32956 | -48.65677 | 7380 ft | 278 kts | 237° |
| 2026-05-09 04:22 | -25.34203 | -48.67151 | 7317 ft | 255 kts | 237° |
| 2026-05-09 04:23 | -25.35405 | -48.68600 | 6833 ft | 254 kts | 238° |
| 2026-05-09 04:23 | -25.36571 | -48.69996 | 6846 ft | 241 kts | 238° |
| 2026-05-09 04:23 | -25.37700 | -48.71354 | 6834 ft | 241 kts | 238° |
| 2026-05-09 04:23 | -25.38843 | -48.72719 | 6829 ft | 240 kts | 238° |
| 2026-05-09 04:24 | -25.39983 | -48.74080 | 6829 ft | 240 kts | 238° |
| 2026-05-09 04:24 | -25.41123 | -48.75442 | 6930 ft | 239 kts | 238° |
| 2026-05-09 04:24 | -25.42250 | -48.76793 | 6931 ft | 243 kts | 238° |
| 2026-05-09 04:24 | -25.43384 | -48.78146 | 6942 ft | 243 kts | 238° |
| 2026-05-09 04:25 | -25.44542 | -48.79528 | 6955 ft | 238 kts | 238° |
| 2026-05-09 04:25 | -25.45663 | -48.80874 | 6969 ft | 239 kts | 239° |
| 2026-05-09 04:25 | -25.46794 | -48.82228 | 6975 ft | 242 kts | 238° |
| 2026-05-09 04:25 | -25.47918 | -48.83567 | 7031 ft | 239 kts | 239° |
| 2026-05-09 04:26 | -25.49065 | -48.84945 | 6970 ft | 238 kts | 238° |
| 2026-05-09 04:26 | -25.50179 | -48.86275 | 6984 ft | 236 kts | 239° |
| 2026-05-09 04:26 | -25.51293 | -48.87616 | 6993 ft | 241 kts | 239° |
| 2026-05-09 04:26 | -25.52410 | -48.88952 | 6914 ft | 237 kts | 239° |
| 2026-05-09 04:27 | -25.53541 | -48.90309 | 6786 ft | 237 kts | 238° |
| 2026-05-09 04:27 | -25.54635 | -48.91612 | 6665 ft | 227 kts | 239° |
| 2026-05-09 04:27 | -25.55685 | -48.92870 | 6515 ft | 216 kts | 239° |
| 2026-05-09 04:27 | -25.56681 | -48.94068 | 6362 ft | 207 kts | 240° |
| 2026-05-09 04:28 | -25.57643 | -48.95219 | 6155 ft | 199 kts | 239° |
| 2026-05-09 04:28 | -25.58770 | -48.96177 | 5886 ft | 214 kts | 208° |
| 2026-05-09 04:28 | -25.60207 | -48.96634 | 5758 ft | 212 kts | 207° |
| 2026-05-09 04:28 | -25.61537 | -48.97218 | 5703 ft | 196 kts | 215° |
| 2026-05-09 04:29 | -25.62743 | -48.97897 | 5516 ft | 191 kts | 220° |
| 2026-05-09 04:29 | -25.63852 | -48.98641 | 5483 ft | 184 kts | 224° |
| 2026-05-09 04:29 | -25.64903 | -48.99457 | 5511 ft | 185 kts | 229° |
| 2026-05-09 04:29 | -25.65888 | -49.00329 | 5481 ft | 183 kts | 232° |
| 2026-05-09 04:30 | -25.66613 | -49.01388 | 5458 ft | 163 kts | 266° |
| 2026-05-09 04:30 | -25.66647 | -49.02251 | 5530 ft | 146 kts | 294° |
| 2026-05-09 04:30 | -25.66173 | -49.03007 | 5533 ft | 140 kts | 321° |
| 2026-05-09 04:31 | -25.65428 | -49.03696 | 5501 ft | 139 kts | 319° |
| 2026-05-09 04:31 | -25.64707 | -49.04439 | 5499 ft | 140 kts | 317° |
| 2026-05-09 04:31 | -25.63994 | -49.05193 | 5429 ft | 142 kts | 317° |
| 2026-05-09 04:31 | -25.63272 | -49.05976 | 5218 ft | 142 kts | 316° |
| 2026-05-09 04:32 | -25.62561 | -49.06761 | 4995 ft | 145 kts | 317° |
| 2026-05-09 04:32 | -25.61854 | -49.07544 | 4945 ft | 135 kts | 317° |
| 2026-05-09 04:32 | -25.61200 | -49.08269 | 4896 ft | 133 kts | 317° |
| 2026-05-09 04:32 | -25.60555 | -49.08988 | 4888 ft | 131 kts | 316° |
| 2026-05-09 04:33 | -25.59914 | -49.09703 | 4724 ft | 127 kts | 316° |
| 2026-05-09 04:33 | -25.59281 | -49.10404 | 4540 ft | 129 kts | 316° |
| 2026-05-09 04:33 | -25.58651 | -49.11112 | 4381 ft | 129 kts | 316° |
| 2026-05-09 04:33 | -25.58000 | -49.11839 | 4204 ft | 133 kts | 317° |
| 2026-05-09 04:34 | -25.57339 | -49.12576 | 4033 ft | 135 kts | 316° |
| 2026-05-09 04:34 | -25.56672 | -49.13319 | 3852 ft | 138 kts | 316° |
| 2026-05-09 04:34 | -25.56002 | -49.14067 | 3679 ft | 139 kts | 317° |
| 2026-05-09 04:34 | -25.55317 | -49.14830 | 3495 ft | 141 kts | 316° |
| 2026-05-09 04:35 | -25.54616 | -49.15614 | 3300 ft | 143 kts | 316° |
| 2026-05-09 04:35 | -25.53907 | -49.16397 | 3117 ft | 143 kts | 316° |
| 2026-05-09 04:35 | -25.53212 | -49.17170 | 3001 ft | 135 kts | 316° |
| 2026-05-09 04:35 | -25.52742 | -49.17693 | 2988 ft | 54 kts | 315° |
| 2026-05-09 04:36 | -25.52654 | -49.17791 | 2988 ft | 0 kts | 314° |
| 2026-05-09 04:36 | -25.52608 | -49.17842 | 2988 ft | 19 kts | 314° |
| 2026-05-09 04:36 | -25.52466 | -49.18002 | 2986 ft | 41 kts | 313° |
| 2026-05-09 04:36 | -25.52239 | -49.18243 | 2985 ft | 50 kts | 334° |